Aviation Digital Data Service (ADDS)

Output produced by METARs form (1025 UTC 24 February 2017)
found at http://aviationweather.gov/adds/metars/
 
METAR text: KDAB 240953Z 35008KT 8SM CLR 19/19 A2976 RMK AO2 SLP078 T01890189
Conditions at: KDAB (DAYTONA BEACH , FL, US) observed 0953 UTC 24 February 2017
Temperature: 18.9°C (66°F)
Dewpoint: 18.9°C (66°F) [RH = 100%]
Pressure (altimeter): 29.76 inches Hg (1007.9 mb)
[Sea-level pressure: 1007.8 mb]
Winds: from the N (350 degrees) at 9 MPH (8 knots; 4.2 m/s)
Visibility: 8 miles (13 km)
Ceiling: at least 12,000 feet AGL
Clouds: sky clear below 12,000 feet AGL
Weather: no significant weather observed at this time

Forecast for: KDAB (DAYTONA BEACH , FL, US)
Text: KDAB 240922Z 2409/2506 36009KT P6SM FEW008 SCT025
Forecast period: 0900 to 1500 UTC 24 February 2017
Forecast type: FROM: standard forecast or significant change
Winds: from the N (360 degrees) at 10 MPH (9 knots; 4.7 m/s)
Visibility: 6 or more miles (10+ km)
Clouds: few clouds at 800 feet AGL
scattered clouds at 2500 feet AGL
Weather: no significant weather forecast for this period
Text: FM241500 04011KT P6SM SCT025
Forecast period: 1500 UTC 24 February 2017 to 0600 UTC 25 February 2017
Forecast type: FROM: standard forecast or significant change
Winds: from the NE (40 degrees) at 13 MPH (11 knots; 5.7 m/s)
Visibility: 6 or more miles (10+ km)
Clouds: scattered clouds at 2500 feet AGL
Weather: no significant weather forecast for this period